Meteo Giornale » Osservazioni meteo Italia » Aosta

ore: 08:20 - Osservazioni Meteo Aosta
Lat. 45° 44' N Lon. 7° 22' E Alt. 546 metri s.l.m.

sereno Europe/Rome

-4 °C

Sereno

Temp. 24 Ore

-5 °C

7 °C

Nord

0 Km/h

Dew point -6 °C

Umidità 85 %

Visibilità  10 Km

Il sole sorge alle ore 08:04

Il sole tramonta alle ore 17:16

Data e Ora Cielo e Fenomeni T °C DP °C Um. % Pres. hPa Vis. km Vento km/h
Oggi h: 08:20 sereno Sereno -4 -6 85 1015 10 N 0
Oggi h: 07:50 sereno Sereno -5 -7 85 1015 10 N 3.7
Ieri h: 17:20 sereno Sereno 4 -5 51 1017 10 N 0
Ieri h: 16:50 sereno Sereno 4 -5 51 1017 10 N 3.7
Ieri h: 16:20 sereno Sereno 6 -6 41 1016 10 N 0
Ieri h: 15:50 poco_nuvoloso Poco Nuvoloso 7 -7 36 1017 10 N 3.7
Ieri h: 15:20 sereno Sereno 6 -6 41 1017 10 N 3.7
Ieri h: 14:50 sereno Sereno 5 -5 48 1017 10 N 3.7
Ieri h: 14:20 sereno Sereno 5 -5 48 1017 10 N 1.8
Ieri h: 13:50 sereno Sereno 3 -4 59 1017 10 N 3.7
Ieri h: 13:20 sereno Sereno 1 -4 69 1018 10 N 0
Ieri h: 12:50 sereno Sereno 1 -5 64 1018 10 N 3.7
Ieri h: 12:20 sereno Sereno -1 -5 74 1019 10 N 0
Ieri h: 11:50 nuvoloso Nuvoloso -2 -4 86 1019 10 N 1.8
Ieri h: 11:20 sereno Sereno -2 -5 79 1020 10 N 0
Ieri h: 10:20 sereno Sereno -3 -5 86 1020 10 N 3.7
Ieri h: 09:50 sereno Sereno -3 -5 86 1020 10 N 3.7
Ieri h: 09:20 sereno Sereno -4 -5 92 1020 10 N 0
Ieri h: 08:50 sereno Sereno -3 -6 79 1020 10 N 0
Ieri h: 08:20 sereno Sereno -4 -6 85 1020 10 N 0
Ieri h: 07:50 sereno Sereno -4 -7 79 1019 10 N 0